sensor_id;sensor_type;location;lat;lon;timestamp;P1;durP1;ratioP1;P2;durP2;ratioP2
4112;SDS011;2070;51.042;7.056;2022-07-22T00:02:13;25.30;;;9.30;;
4112;SDS011;2070;51.042;7.056;2022-07-22T00:04:38;18.03;;;7.83;;
4112;SDS011;2070;51.042;7.056;2022-07-22T00:07:04;14.90;;;7.07;;
4112;SDS011;2070;51.042;7.056;2022-07-22T00:09:29;34.40;;;9.53;;
4112;SDS011;2070;51.042;7.056;2022-07-22T00:11:55;17.77;;;8.30;;
4112;SDS011;2070;51.042;7.056;2022-07-22T00:14:20;13.80;;;8.10;;
4112;SDS011;2070;51.042;7.056;2022-07-22T00:16:45;20.03;;;8.50;;
4112;SDS011;2070;51.042;7.056;2022-07-22T00:19:10;17.00;;;7.07;;
4112;SDS011;2070;51.042;7.056;2022-07-22T00:21:35;24.27;;;9.10;;
4112;SDS011;2070;51.042;7.056;2022-07-22T00:24:01;14.07;;;8.10;;
4112;SDS011;2070;51.042;7.056;2022-07-22T00:26:26;14.97;;;8.53;;
4112;SDS011;2070;51.042;7.056;2022-07-22T00:28:51;13.90;;;7.80;;
4112;SDS011;2070;51.042;7.056;2022-07-22T00:31:16;14.27;;;6.80;;
4112;SDS011;2070;51.042;7.056;2022-07-22T00:33:42;21.23;;;8.40;;
4112;SDS011;2070;51.042;7.056;2022-07-22T00:36:07;18.07;;;7.80;;
4112;SDS011;2070;51.042;7.056;2022-07-22T00:38:33;12.60;;;6.23;;
4112;SDS011;2070;51.042;7.056;2022-07-22T00:40:58;13.93;;;6.87;;
4112;SDS011;2070;51.042;7.056;2022-07-22T00:43:23;17.63;;;7.63;;
4112;SDS011;2070;51.042;7.056;2022-07-22T00:45:49;14.97;;;7.37;;
4112;SDS011;2070;51.042;7.056;2022-07-22T00:48:14;17.50;;;9.67;;
4112;SDS011;2070;51.042;7.056;2022-07-22T00:50:39;19.23;;;9.50;;
4112;SDS011;2070;51.042;7.056;2022-07-22T00:53:05;17.97;;;8.60;;
4112;SDS011;2070;51.042;7.056;2022-07-22T00:55:32;12.50;;;8.00;;
4112;SDS011;2070;51.042;7.056;2022-07-22T00:57:57;23.17;;;7.80;;
4112;SDS011;2070;51.042;7.056;2022-07-22T01:00:23;24.40;;;7.87;;
4112;SDS011;2070;51.042;7.056;2022-07-22T01:02:48;13.20;;;8.00;;
4112;SDS011;2070;51.042;7.056;2022-07-22T01:05:13;13.50;;;6.40;;
4112;SDS011;2070;51.042;7.056;2022-07-22T01:07:38;14.47;;;7.70;;
4112;SDS011;2070;51.042;7.056;2022-07-22T01:10:05;13.70;;;7.07;;
4112;SDS011;2070;51.042;7.056;2022-07-22T01:12:30;11.80;;;6.70;;
4112;SDS011;2070;51.042;7.056;2022-07-22T01:14:55;15.43;;;8.00;;
4112;SDS011;2070;51.042;7.056;2022-07-22T01:17:21;30.03;;;8.10;;
4112;SDS011;2070;51.042;7.056;2022-07-22T01:19:46;20.60;;;5.27;;
4112;SDS011;2070;51.042;7.056;2022-07-22T01:22:11;19.90;;;6.60;;
4112;SDS011;2070;51.042;7.056;2022-07-22T01:24:37;26.20;;;6.00;;
4112;SDS011;2070;51.042;7.056;2022-07-22T01:27:02;12.10;;;6.03;;
4112;SDS011;2070;51.042;7.056;2022-07-22T01:29:27;15.00;;;6.63;;
4112;SDS011;2070;51.042;7.056;2022-07-22T01:31:52;16.23;;;6.63;;
4112;SDS011;2070;51.042;7.056;2022-07-22T01:34:18;12.60;;;7.43;;
4112;SDS011;2070;51.042;7.056;2022-07-22T01:36:43;19.83;;;7.63;;
4112;SDS011;2070;51.042;7.056;2022-07-22T01:39:08;21.33;;;6.97;;
4112;SDS011;2070;51.042;7.056;2022-07-22T01:41:34;29.27;;;7.67;;
4112;SDS011;2070;51.042;7.056;2022-07-22T01:43:59;11.50;;;6.33;;
4112;SDS011;2070;51.042;7.056;2022-07-22T01:46:24;12.97;;;6.57;;
4112;SDS011;2070;51.042;7.056;2022-07-22T01:48:50;21.07;;;6.90;;
4112;SDS011;2070;51.042;7.056;2022-07-22T01:51:15;24.63;;;7.00;;
4112;SDS011;2070;51.042;7.056;2022-07-22T01:53:40;19.93;;;7.30;;
4112;SDS011;2070;51.042;7.056;2022-07-22T01:56:06;15.50;;;6.30;;
4112;SDS011;2070;51.042;7.056;2022-07-22T01:58:31;18.10;;;6.17;;
4112;SDS011;2070;51.042;7.056;2022-07-22T02:00:56;15.00;;;6.20;;
4112;SDS011;2070;51.042;7.056;2022-07-22T02:03:22;13.80;;;7.27;;
4112;SDS011;2070;51.042;7.056;2022-07-22T02:05:47;19.60;;;7.17;;
4112;SDS011;2070;51.042;7.056;2022-07-22T02:08:12;14.93;;;6.90;;
4112;SDS011;2070;51.042;7.056;2022-07-22T02:10:38;13.40;;;6.63;;
4112;SDS011;2070;51.042;7.056;2022-07-22T02:13:04;20.37;;;6.73;;
4112;SDS011;2070;51.042;7.056;2022-07-22T02:15:29;12.80;;;6.80;;
4112;SDS011;2070;51.042;7.056;2022-07-22T02:17:54;12.70;;;7.70;;
4112;SDS011;2070;51.042;7.056;2022-07-22T02:20:20;14.37;;;8.13;;
4112;SDS011;2070;51.042;7.056;2022-07-22T02:22:45;23.20;;;8.30;;
4112;SDS011;2070;51.042;7.056;2022-07-22T02:25:10;14.77;;;7.23;;
4112;SDS011;2070;51.042;7.056;2022-07-22T02:27:36;22.07;;;9.20;;
4112;SDS011;2070;51.042;7.056;2022-07-22T02:30:01;15.47;;;7.87;;
4112;SDS011;2070;51.042;7.056;2022-07-22T02:32:27;15.37;;;7.93;;
4112;SDS011;2070;51.042;7.056;2022-07-22T02:34:52;18.30;;;8.17;;
4112;SDS011;2070;51.042;7.056;2022-07-22T02:37:17;15.80;;;7.47;;
4112;SDS011;2070;51.042;7.056;2022-07-22T02:39:42;16.67;;;8.00;;
4112;SDS011;2070;51.042;7.056;2022-07-22T02:42:08;14.97;;;7.70;;
4112;SDS011;2070;51.042;7.056;2022-07-22T02:44:33;10.20;;;6.73;;
4112;SDS011;2070;51.042;7.056;2022-07-22T02:46:58;14.13;;;7.10;;
4112;SDS011;2070;51.042;7.056;2022-07-22T02:49:23;12.50;;;7.93;;
4112;SDS011;2070;51.042;7.056;2022-07-22T02:51:48;14.17;;;8.33;;
4112;SDS011;2070;51.042;7.056;2022-07-22T02:54:14;21.77;;;7.93;;
4112;SDS011;2070;51.042;7.056;2022-07-22T02:56:39;15.97;;;8.57;;
4112;SDS011;2070;51.042;7.056;2022-07-22T02:59:04;17.27;;;10.43;;
4112;SDS011;2070;51.042;7.056;2022-07-22T03:01:29;20.77;;;9.40;;
4112;SDS011;2070;51.042;7.056;2022-07-22T03:03:54;19.47;;;9.30;;
4112;SDS011;2070;51.042;7.056;2022-07-22T03:06:20;21.80;;;9.67;;
4112;SDS011;2070;51.042;7.056;2022-07-22T03:08:46;21.10;;;10.27;;
4112;SDS011;2070;51.042;7.056;2022-07-22T03:11:12;21.93;;;9.33;;
4112;SDS011;2070;51.042;7.056;2022-07-22T03:13:37;20.00;;;10.13;;
4112;SDS011;2070;51.042;7.056;2022-07-22T03:16:02;17.13;;;9.00;;
4112;SDS011;2070;51.042;7.056;2022-07-22T03:18:28;16.70;;;9.33;;
4112;SDS011;2070;51.042;7.056;2022-07-22T03:20:53;17.13;;;9.17;;
4112;SDS011;2070;51.042;7.056;2022-07-22T03:23:18;20.33;;;8.83;;
4112;SDS011;2070;51.042;7.056;2022-07-22T03:25:43;18.30;;;9.60;;
4112;SDS011;2070;51.042;7.056;2022-07-22T03:28:09;26.33;;;9.80;;
4112;SDS011;2070;51.042;7.056;2022-07-22T03:30:34;20.40;;;9.07;;
4112;SDS011;2070;51.042;7.056;2022-07-22T03:32:59;31.03;;;12.60;;
4112;SDS011;2070;51.042;7.056;2022-07-22T03:35:24;21.93;;;9.43;;
4112;SDS011;2070;51.042;7.056;2022-07-22T03:37:49;20.17;;;9.20;;
4112;SDS011;2070;51.042;7.056;2022-07-22T03:40:15;24.10;;;10.33;;
4112;SDS011;2070;51.042;7.056;2022-07-22T03:42:40;23.37;;;11.10;;
4112;SDS011;2070;51.042;7.056;2022-07-22T03:45:05;18.43;;;10.80;;
4112;SDS011;2070;51.042;7.056;2022-07-22T03:47:31;19.30;;;9.80;;
4112;SDS011;2070;51.042;7.056;2022-07-22T03:49:56;29.20;;;11.63;;
4112;SDS011;2070;51.042;7.056;2022-07-22T03:52:23;25.47;;;10.90;;
4112;SDS011;2070;51.042;7.056;2022-07-22T03:54:48;16.80;;;9.60;;
4112;SDS011;2070;51.042;7.056;2022-07-22T03:57:13;18.17;;;11.50;;
4112;SDS011;2070;51.042;7.056;2022-07-22T03:59:39;22.83;;;11.77;;
4112;SDS011;2070;51.042;7.056;2022-07-22T04:02:04;24.13;;;10.57;;
4112;SDS011;2070;51.042;7.056;2022-07-22T04:04:29;19.10;;;10.70;;
4112;SDS011;2070;51.042;7.056;2022-07-22T04:06:54;24.57;;;13.00;;
4112;SDS011;2070;51.042;7.056;2022-07-22T04:09:20;17.10;;;10.93;;
4112;SDS011;2070;51.042;7.056;2022-07-22T04:11:45;22.70;;;10.07;;
4112;SDS011;2070;51.042;7.056;2022-07-22T04:14:11;16.87;;;9.30;;
4112;SDS011;2070;51.042;7.056;2022-07-22T04:16:36;15.53;;;9.83;;
4112;SDS011;2070;51.042;7.056;2022-07-22T04:19:02;22.13;;;10.37;;
4112;SDS011;2070;51.042;7.056;2022-07-22T04:21:27;24.83;;;10.50;;
4112;SDS011;2070;51.042;7.056;2022-07-22T04:23:53;16.60;;;9.30;;
4112;SDS011;2070;51.042;7.056;2022-07-22T04:26:18;18.67;;;9.17;;
4112;SDS011;2070;51.042;7.056;2022-07-22T04:28:43;19.57;;;10.37;;
4112;SDS011;2070;51.042;7.056;2022-07-22T04:31:09;22.53;;;10.07;;
4112;SDS011;2070;51.042;7.056;2022-07-22T04:33:34;18.87;;;9.30;;
4112;SDS011;2070;51.042;7.056;2022-07-22T04:35:59;23.03;;;10.30;;
4112;SDS011;2070;51.042;7.056;2022-07-22T04:38:24;18.63;;;9.90;;
4112;SDS011;2070;51.042;7.056;2022-07-22T04:40:50;18.60;;;10.50;;
4112;SDS011;2070;51.042;7.056;2022-07-22T04:43:15;25.50;;;10.57;;
4112;SDS011;2070;51.042;7.056;2022-07-22T04:45:40;15.83;;;9.93;;
4112;SDS011;2070;51.042;7.056;2022-07-22T04:48:05;19.57;;;9.83;;
4112;SDS011;2070;51.042;7.056;2022-07-22T04:50:31;23.97;;;11.27;;
4112;SDS011;2070;51.042;7.056;2022-07-22T04:52:56;23.33;;;10.90;;
4112;SDS011;2070;51.042;7.056;2022-07-22T04:55:21;18.83;;;9.60;;
4112;SDS011;2070;51.042;7.056;2022-07-22T04:57:46;25.17;;;12.17;;
4112;SDS011;2070;51.042;7.056;2022-07-22T05:00:12;25.03;;;14.40;;
4112;SDS011;2070;51.042;7.056;2022-07-22T05:02:37;40.53;;;14.17;;
4112;SDS011;2070;51.042;7.056;2022-07-22T05:05:02;29.60;;;12.00;;
4112;SDS011;2070;51.042;7.056;2022-07-22T05:07:28;26.57;;;13.17;;
4112;SDS011;2070;51.042;7.056;2022-07-22T05:09:53;34.23;;;14.00;;
4112;SDS011;2070;51.042;7.056;2022-07-22T05:12:18;31.43;;;13.70;;
4112;SDS011;2070;51.042;7.056;2022-07-22T05:14:43;31.30;;;13.57;;
4112;SDS011;2070;51.042;7.056;2022-07-22T05:17:09;27.83;;;12.30;;
4112;SDS011;2070;51.042;7.056;2022-07-22T05:19:37;25.67;;;11.17;;
4112;SDS011;2070;51.042;7.056;2022-07-22T05:22:02;28.40;;;12.67;;
4112;SDS011;2070;51.042;7.056;2022-07-22T05:24:27;29.60;;;11.20;;
4112;SDS011;2070;51.042;7.056;2022-07-22T05:26:53;26.53;;;11.40;;
4112;SDS011;2070;51.042;7.056;2022-07-22T05:29:18;30.90;;;13.50;;
4112;SDS011;2070;51.042;7.056;2022-07-22T05:31:43;27.53;;;11.30;;
4112;SDS011;2070;51.042;7.056;2022-07-22T05:34:08;39.43;;;13.43;;
4112;SDS011;2070;51.042;7.056;2022-07-22T05:36:34;31.10;;;13.10;;
4112;SDS011;2070;51.042;7.056;2022-07-22T05:38:59;28.30;;;12.23;;
4112;SDS011;2070;51.042;7.056;2022-07-22T05:41:24;27.10;;;11.57;;
4112;SDS011;2070;51.042;7.056;2022-07-22T05:43:49;26.10;;;11.87;;
4112;SDS011;2070;51.042;7.056;2022-07-22T05:46:15;19.67;;;9.90;;
4112;SDS011;2070;51.042;7.056;2022-07-22T05:48:40;31.20;;;11.80;;
4112;SDS011;2070;51.042;7.056;2022-07-22T05:51:10;22.10;;;10.80;;
4112;SDS011;2070;51.042;7.056;2022-07-22T05:53:35;30.57;;;11.20;;
4112;SDS011;2070;51.042;7.056;2022-07-22T05:56:00;18.10;;;11.37;;
4112;SDS011;2070;51.042;7.056;2022-07-22T05:58:25;30.47;;;12.50;;
4112;SDS011;2070;51.042;7.056;2022-07-22T06:00:50;18.63;;;9.60;;
4112;SDS011;2070;51.042;7.056;2022-07-22T06:03:16;17.80;;;8.07;;
4112;SDS011;2070;51.042;7.056;2022-07-22T06:05:41;16.57;;;9.03;;
4112;SDS011;2070;51.042;7.056;2022-07-22T06:08:06;17.80;;;9.43;;
4112;SDS011;2070;51.042;7.056;2022-07-22T06:10:31;21.67;;;10.00;;
4112;SDS011;2070;51.042;7.056;2022-07-22T06:12:57;16.50;;;7.73;;
4112;SDS011;2070;51.042;7.056;2022-07-22T06:15:22;12.37;;;6.87;;
4112;SDS011;2070;51.042;7.056;2022-07-22T06:17:47;8.37;;;5.00;;
4112;SDS011;2070;51.042;7.056;2022-07-22T06:20:12;11.47;;;4.27;;
4112;SDS011;2070;51.042;7.056;2022-07-22T06:22:40;7.90;;;4.43;;
4112;SDS011;2070;51.042;7.056;2022-07-22T06:25:06;10.20;;;4.27;;
4112;SDS011;2070;51.042;7.056;2022-07-22T06:27:31;5.17;;;3.60;;
4112;SDS011;2070;51.042;7.056;2022-07-22T06:29:56;12.23;;;3.83;;
4112;SDS011;2070;51.042;7.056;2022-07-22T06:32:21;9.63;;;3.90;;
4112;SDS011;2070;51.042;7.056;2022-07-22T06:34:47;4.40;;;3.10;;
4112;SDS011;2070;51.042;7.056;2022-07-22T06:37:12;12.77;;;5.10;;
4112;SDS011;2070;51.042;7.056;2022-07-22T06:39:37;10.57;;;4.13;;
4112;SDS011;2070;51.042;7.056;2022-07-22T06:42:02;8.70;;;3.47;;
4112;SDS011;2070;51.042;7.056;2022-07-22T06:44:28;7.07;;;3.67;;
4112;SDS011;2070;51.042;7.056;2022-07-22T06:46:53;8.67;;;5.00;;
4112;SDS011;2070;51.042;7.056;2022-07-22T06:49:18;9.93;;;5.27;;
4112;SDS011;2070;51.042;7.056;2022-07-22T06:51:43;7.93;;;4.63;;
4112;SDS011;2070;51.042;7.056;2022-07-22T06:54:08;6.23;;;4.90;;
4112;SDS011;2070;51.042;7.056;2022-07-22T06:56:34;12.23;;;5.13;;
4112;SDS011;2070;51.042;7.056;2022-07-22T06:58:59;6.93;;;4.20;;
4112;SDS011;2070;51.042;7.056;2022-07-22T07:01:24;7.03;;;5.37;;
4112;SDS011;2070;51.042;7.056;2022-07-22T07:03:49;7.93;;;4.67;;
4112;SDS011;2070;51.042;7.056;2022-07-22T07:06:14;15.20;;;7.10;;
4112;SDS011;2070;51.042;7.056;2022-07-22T07:08:40;11.17;;;5.50;;
4112;SDS011;2070;51.042;7.056;2022-07-22T07:11:05;13.47;;;5.67;;
4112;SDS011;2070;51.042;7.056;2022-07-22T07:13:30;6.80;;;3.70;;
4112;SDS011;2070;51.042;7.056;2022-07-22T07:15:56;10.23;;;4.43;;
4112;SDS011;2070;51.042;7.056;2022-07-22T07:18:21;10.60;;;5.50;;
4112;SDS011;2070;51.042;7.056;2022-07-22T07:20:46;14.17;;;5.60;;
4112;SDS011;2070;51.042;7.056;2022-07-22T07:23:11;10.43;;;5.23;;
4112;SDS011;2070;51.042;7.056;2022-07-22T07:25:37;9.83;;;4.20;;
4112;SDS011;2070;51.042;7.056;2022-07-22T07:28:02;12.90;;;6.10;;
4112;SDS011;2070;51.042;7.056;2022-07-22T07:30:27;16.03;;;6.00;;
4112;SDS011;2070;51.042;7.056;2022-07-22T07:32:52;9.87;;;5.47;;
4112;SDS011;2070;51.042;7.056;2022-07-22T07:35:18;11.83;;;5.43;;
4112;SDS011;2070;51.042;7.056;2022-07-22T07:37:43;13.70;;;7.03;;
4112;SDS011;2070;51.042;7.056;2022-07-22T07:40:08;9.33;;;5.53;;
4112;SDS011;2070;51.042;7.056;2022-07-22T07:42:34;7.10;;;5.70;;
4112;SDS011;2070;51.042;7.056;2022-07-22T07:44:59;8.50;;;5.30;;
4112;SDS011;2070;51.042;7.056;2022-07-22T07:47:24;12.40;;;6.00;;
4112;SDS011;2070;51.042;7.056;2022-07-22T07:49:49;8.23;;;5.20;;
4112;SDS011;2070;51.042;7.056;2022-07-22T07:52:15;6.67;;;4.80;;
4112;SDS011;2070;51.042;7.056;2022-07-22T07:54:41;11.33;;;6.13;;
4112;SDS011;2070;51.042;7.056;2022-07-22T07:57:07;8.30;;;5.97;;
4112;SDS011;2070;51.042;7.056;2022-07-22T07:59:33;9.67;;;5.73;;
4112;SDS011;2070;51.042;7.056;2022-07-22T08:01:58;15.30;;;7.50;;
4112;SDS011;2070;51.042;7.056;2022-07-22T08:04:23;6.67;;;5.67;;
4112;SDS011;2070;51.042;7.056;2022-07-22T08:06:48;9.53;;;5.80;;
4112;SDS011;2070;51.042;7.056;2022-07-22T08:09:14;8.43;;;5.90;;
4112;SDS011;2070;51.042;7.056;2022-07-22T08:11:39;5.63;;;4.87;;
4112;SDS011;2070;51.042;7.056;2022-07-22T08:14:04;11.37;;;6.70;;
4112;SDS011;2070;51.042;7.056;2022-07-22T08:16:29;7.63;;;4.63;;
4112;SDS011;2070;51.042;7.056;2022-07-22T08:18:55;8.27;;;5.93;;
4112;SDS011;2070;51.042;7.056;2022-07-22T08:21:20;9.37;;;4.80;;
4112;SDS011;2070;51.042;7.056;2022-07-22T08:23:45;10.40;;;6.00;;
4112;SDS011;2070;51.042;7.056;2022-07-22T08:26:10;17.73;;;5.00;;
4112;SDS011;2070;51.042;7.056;2022-07-22T08:28:36;14.77;;;4.87;;
4112;SDS011;2070;51.042;7.056;2022-07-22T08:31:01;7.10;;;5.27;;
4112;SDS011;2070;51.042;7.056;2022-07-22T08:33:26;6.53;;;4.83;;
4112;SDS011;2070;51.042;7.056;2022-07-22T08:35:51;5.90;;;4.40;;
4112;SDS011;2070;51.042;7.056;2022-07-22T08:38:16;15.63;;;5.30;;
4112;SDS011;2070;51.042;7.056;2022-07-22T08:40:42;11.30;;;5.73;;
4112;SDS011;2070;51.042;7.056;2022-07-22T08:43:07;11.70;;;5.77;;
4112;SDS011;2070;51.042;7.056;2022-07-22T08:45:32;12.73;;;5.30;;
4112;SDS011;2070;51.042;7.056;2022-07-22T08:47:58;7.57;;;4.60;;
4112;SDS011;2070;51.042;7.056;2022-07-22T08:50:24;9.90;;;5.63;;
4112;SDS011;2070;51.042;7.056;2022-07-22T08:52:49;7.97;;;4.27;;
4112;SDS011;2070;51.042;7.056;2022-07-22T08:55:14;8.73;;;4.10;;
4112;SDS011;2070;51.042;7.056;2022-07-22T08:57:46;7.47;;;5.20;;
4112;SDS011;2070;51.042;7.056;2022-07-22T09:00:13;5.30;;;4.53;;
4112;SDS011;2070;51.042;7.056;2022-07-22T09:02:40;8.43;;;4.40;;
4112;SDS011;2070;51.042;7.056;2022-07-22T09:05:07;8.37;;;4.90;;
4112;SDS011;2070;51.042;7.056;2022-07-22T09:07:33;7.40;;;4.37;;
4112;SDS011;2070;51.042;7.056;2022-07-22T09:09:59;12.57;;;3.60;;
4112;SDS011;2070;51.042;7.056;2022-07-22T09:12:25;5.70;;;3.70;;
4112;SDS011;2070;51.042;7.056;2022-07-22T09:14:53;5.93;;;4.10;;
4112;SDS011;2070;51.042;7.056;2022-07-22T09:17:22;6.10;;;3.63;;
4112;SDS011;2070;51.042;7.056;2022-07-22T09:19:47;7.27;;;3.87;;
4112;SDS011;2070;51.042;7.056;2022-07-22T09:22:12;5.60;;;3.87;;
4112;SDS011;2070;51.042;7.056;2022-07-22T09:24:38;5.53;;;4.00;;
4112;SDS011;2070;51.042;7.056;2022-07-22T09:27:03;5.77;;;4.30;;
4112;SDS011;2070;51.042;7.056;2022-07-22T09:29:28;6.37;;;4.47;;
4112;SDS011;2070;51.042;7.056;2022-07-22T09:31:53;6.10;;;5.00;;
4112;SDS011;2070;51.042;7.056;2022-07-22T09:34:29;6.20;;;4.67;;
4112;SDS011;2070;51.042;7.056;2022-07-22T09:36:55;10.17;;;4.40;;
4112;SDS011;2070;51.042;7.056;2022-07-22T09:39:27;10.60;;;4.67;;
4112;SDS011;2070;51.042;7.056;2022-07-22T09:42:02;8.67;;;5.43;;
4112;SDS011;2070;51.042;7.056;2022-07-22T09:44:28;9.10;;;4.97;;
4112;SDS011;2070;51.042;7.056;2022-07-22T09:46:53;7.10;;;4.57;;
4112;SDS011;2070;51.042;7.056;2022-07-22T09:49:34;6.40;;;4.70;;
4112;SDS011;2070;51.042;7.056;2022-07-22T09:52:00;7.33;;;4.40;;
4112;SDS011;2070;51.042;7.056;2022-07-22T09:54:26;10.53;;;5.13;;
4112;SDS011;2070;51.042;7.056;2022-07-22T09:56:51;11.67;;;4.43;;
4112;SDS011;2070;51.042;7.056;2022-07-22T09:59:16;6.87;;;4.00;;
4112;SDS011;2070;51.042;7.056;2022-07-22T10:01:42;5.50;;;4.03;;
4112;SDS011;2070;51.042;7.056;2022-07-22T10:04:07;8.70;;;4.70;;
4112;SDS011;2070;51.042;7.056;2022-07-22T10:06:32;14.13;;;5.00;;
4112;SDS011;2070;51.042;7.056;2022-07-22T10:08:58;5.20;;;3.83;;
4112;SDS011;2070;51.042;7.056;2022-07-22T10:11:24;4.70;;;3.70;;
4112;SDS011;2070;51.042;7.056;2022-07-22T10:13:49;16.93;;;4.03;;
4112;SDS011;2070;51.042;7.056;2022-07-22T10:16:15;7.40;;;3.10;;
4112;SDS011;2070;51.042;7.056;2022-07-22T10:18:43;8.90;;;5.00;;
4112;SDS011;2070;51.042;7.056;2022-07-22T10:21:09;7.57;;;4.97;;
4112;SDS011;2070;51.042;7.056;2022-07-22T10:23:35;8.63;;;5.50;;
4112;SDS011;2070;51.042;7.056;2022-07-22T10:26:02;8.43;;;4.60;;
4112;SDS011;2070;51.042;7.056;2022-07-22T10:28:31;7.73;;;4.40;;
4112;SDS011;2070;51.042;7.056;2022-07-22T10:33:40;14.20;;;4.90;;
4112;SDS011;2070;51.042;7.056;2022-07-22T10:36:06;15.13;;;4.13;;
4112;SDS011;2070;51.042;7.056;2022-07-22T10:38:32;9.80;;;4.87;;
4112;SDS011;2070;51.042;7.056;2022-07-22T10:41:01;6.40;;;4.43;;
4112;SDS011;2070;51.042;7.056;2022-07-22T10:43:27;6.37;;;4.10;;
4112;SDS011;2070;51.042;7.056;2022-07-22T10:45:53;17.30;;;4.63;;
4112;SDS011;2070;51.042;7.056;2022-07-22T10:48:20;7.43;;;3.57;;
4112;SDS011;2070;51.042;7.056;2022-07-22T10:50:46;14.23;;;4.93;;
4112;SDS011;2070;51.042;7.056;2022-07-22T10:53:13;6.60;;;4.13;;
4112;SDS011;2070;51.042;7.056;2022-07-22T10:55:39;9.43;;;4.63;;
4112;SDS011;2070;51.042;7.056;2022-07-22T11:00:56;7.43;;;3.90;;
4112;SDS011;2070;51.042;7.056;2022-07-22T11:03:25;6.13;;;4.27;;
4112;SDS011;2070;51.042;7.056;2022-07-22T11:05:50;6.63;;;3.93;;
4112;SDS011;2070;51.042;7.056;2022-07-22T11:08:16;7.73;;;4.33;;
4112;SDS011;2070;51.042;7.056;2022-07-22T11:10:46;8.97;;;5.20;;
4112;SDS011;2070;51.042;7.056;2022-07-22T11:13:12;6.17;;;4.00;;
4112;SDS011;2070;51.042;7.056;2022-07-22T11:15:37;6.83;;;3.60;;
4112;SDS011;2070;51.042;7.056;2022-07-22T11:18:03;8.30;;;5.20;;
4112;SDS011;2070;51.042;7.056;2022-07-22T11:20:28;6.97;;;4.10;;
4112;SDS011;2070;51.042;7.056;2022-07-22T11:22:54;6.33;;;4.40;;
4112;SDS011;2070;51.042;7.056;2022-07-22T11:25:19;8.87;;;4.03;;
4112;SDS011;2070;51.042;7.056;2022-07-22T11:27:50;6.80;;;3.90;;
4112;SDS011;2070;51.042;7.056;2022-07-22T11:30:16;6.23;;;2.93;;
4112;SDS011;2070;51.042;7.056;2022-07-22T11:32:42;6.20;;;4.33;;
4112;SDS011;2070;51.042;7.056;2022-07-22T11:35:10;6.40;;;4.97;;
4112;SDS011;2070;51.042;7.056;2022-07-22T11:37:35;9.63;;;5.20;;
4112;SDS011;2070;51.042;7.056;2022-07-22T11:40:02;7.37;;;4.43;;
4112;SDS011;2070;51.042;7.056;2022-07-22T11:42:28;7.30;;;4.20;;
4112;SDS011;2070;51.042;7.056;2022-07-22T11:44:53;14.70;;;9.47;;
4112;SDS011;2070;51.042;7.056;2022-07-22T11:47:19;9.57;;;4.10;;
4112;SDS011;2070;51.042;7.056;2022-07-22T11:49:45;10.23;;;5.53;;
4112;SDS011;2070;51.042;7.056;2022-07-22T11:52:11;9.13;;;4.93;;
4112;SDS011;2070;51.042;7.056;2022-07-22T11:54:39;5.63;;;3.67;;
4112;SDS011;2070;51.042;7.056;2022-07-22T11:57:05;8.10;;;5.07;;
4112;SDS011;2070;51.042;7.056;2022-07-22T11:59:32;9.70;;;5.30;;
4112;SDS011;2070;51.042;7.056;2022-07-22T12:01:57;9.17;;;5.30;;
4112;SDS011;2070;51.042;7.056;2022-07-22T12:04:23;8.63;;;5.00;;
4112;SDS011;2070;51.042;7.056;2022-07-22T12:06:49;9.63;;;5.53;;
4112;SDS011;2070;51.042;7.056;2022-07-22T12:09:22;8.30;;;5.10;;
4112;SDS011;2070;51.042;7.056;2022-07-22T12:11:48;15.93;;;6.37;;
4112;SDS011;2070;51.042;7.056;2022-07-22T12:14:14;9.60;;;5.43;;
4112;SDS011;2070;51.042;7.056;2022-07-22T12:16:40;8.73;;;4.90;;
4112;SDS011;2070;51.042;7.056;2022-07-22T12:19:07;6.87;;;4.90;;
4112;SDS011;2070;51.042;7.056;2022-07-22T12:21:37;5.60;;;4.80;;
4112;SDS011;2070;51.042;7.056;2022-07-22T12:24:03;8.40;;;5.97;;
4112;SDS011;2070;51.042;7.056;2022-07-22T12:26:48;5.10;;;4.47;;
4112;SDS011;2070;51.042;7.056;2022-07-22T12:31:42;7.30;;;5.60;;
4112;SDS011;2070;51.042;7.056;2022-07-22T12:34:08;9.07;;;5.23;;
4112;SDS011;2070;51.042;7.056;2022-07-22T12:36:33;11.10;;;6.23;;
4112;SDS011;2070;51.042;7.056;2022-07-22T12:39:10;8.30;;;5.10;;
4112;SDS011;2070;51.042;7.056;2022-07-22T12:41:43;10.00;;;6.10;;
4112;SDS011;2070;51.042;7.056;2022-07-22T12:44:14;9.57;;;6.10;;
4112;SDS011;2070;51.042;7.056;2022-07-22T12:46:53;11.90;;;5.60;;
4112;SDS011;2070;51.042;7.056;2022-07-22T12:49:19;8.47;;;6.10;;
4112;SDS011;2070;51.042;7.056;2022-07-22T12:54:28;8.87;;;5.20;;
4112;SDS011;2070;51.042;7.056;2022-07-22T12:56:54;11.83;;;6.20;;
4112;SDS011;2070;51.042;7.056;2022-07-22T12:59:19;10.07;;;5.90;;
4112;SDS011;2070;51.042;7.056;2022-07-22T13:01:45;10.13;;;5.13;;
4112;SDS011;2070;51.042;7.056;2022-07-22T13:04:13;10.80;;;6.57;;
4112;SDS011;2070;51.042;7.056;2022-07-22T13:06:38;11.97;;;6.67;;
4112;SDS011;2070;51.042;7.056;2022-07-22T13:09:04;13.17;;;6.80;;
4112;SDS011;2070;51.042;7.056;2022-07-22T13:11:29;11.00;;;6.90;;
4112;SDS011;2070;51.042;7.056;2022-07-22T13:13:54;14.60;;;6.60;;
4112;SDS011;2070;51.042;7.056;2022-07-22T13:16:19;9.80;;;6.37;;
4112;SDS011;2070;51.042;7.056;2022-07-22T13:18:44;14.30;;;6.20;;
4112;SDS011;2070;51.042;7.056;2022-07-22T13:21:10;10.10;;;5.23;;
4112;SDS011;2070;51.042;7.056;2022-07-22T13:23:35;11.50;;;5.90;;
4112;SDS011;2070;51.042;7.056;2022-07-22T13:26:00;11.00;;;6.20;;
4112;SDS011;2070;51.042;7.056;2022-07-22T13:28:25;7.93;;;5.87;;
4112;SDS011;2070;51.042;7.056;2022-07-22T13:30:51;8.07;;;5.60;;
4112;SDS011;2070;51.042;7.056;2022-07-22T13:33:16;10.47;;;5.70;;
4112;SDS011;2070;51.042;7.056;2022-07-22T13:35:42;15.37;;;5.40;;
4112;SDS011;2070;51.042;7.056;2022-07-22T13:38:07;9.40;;;5.90;;
4112;SDS011;2070;51.042;7.056;2022-07-22T13:40:32;11.70;;;6.13;;
4112;SDS011;2070;51.042;7.056;2022-07-22T13:42:57;13.63;;;6.40;;
4112;SDS011;2070;51.042;7.056;2022-07-22T13:45:23;14.20;;;6.50;;
4112;SDS011;2070;51.042;7.056;2022-07-22T13:47:49;14.30;;;7.33;;
4112;SDS011;2070;51.042;7.056;2022-07-22T13:50:14;13.83;;;7.40;;
4112;SDS011;2070;51.042;7.056;2022-07-22T13:52:39;17.73;;;6.70;;
4112;SDS011;2070;51.042;7.056;2022-07-22T13:55:04;14.33;;;6.73;;
4112;SDS011;2070;51.042;7.056;2022-07-22T13:57:30;10.60;;;5.77;;
4112;SDS011;2070;51.042;7.056;2022-07-22T13:59:55;6.93;;;5.53;;
4112;SDS011;2070;51.042;7.056;2022-07-22T14:02:21;11.10;;;5.80;;
4112;SDS011;2070;51.042;7.056;2022-07-22T14:04:46;14.20;;;6.33;;
4112;SDS011;2070;51.042;7.056;2022-07-22T14:07:11;14.03;;;6.40;;
4112;SDS011;2070;51.042;7.056;2022-07-22T14:09:36;15.50;;;5.70;;
4112;SDS011;2070;51.042;7.056;2022-07-22T14:12:01;10.60;;;5.80;;
4112;SDS011;2070;51.042;7.056;2022-07-22T14:14:27;8.60;;;5.40;;
4112;SDS011;2070;51.042;7.056;2022-07-22T14:16:52;10.20;;;5.77;;
4112;SDS011;2070;51.042;7.056;2022-07-22T14:19:17;7.60;;;5.13;;
4112;SDS011;2070;51.042;7.056;2022-07-22T14:21:43;12.07;;;6.60;;
4112;SDS011;2070;51.042;7.056;2022-07-22T14:24:08;13.83;;;6.63;;
4112;SDS011;2070;51.042;7.056;2022-07-22T14:26:34;11.23;;;5.77;;
4112;SDS011;2070;51.042;7.056;2022-07-22T14:29:00;15.23;;;7.40;;
4112;SDS011;2070;51.042;7.056;2022-07-22T14:31:25;9.97;;;5.67;;
4112;SDS011;2070;51.042;7.056;2022-07-22T14:33:50;9.30;;;5.20;;
4112;SDS011;2070;51.042;7.056;2022-07-22T14:36:16;13.10;;;5.90;;
4112;SDS011;2070;51.042;7.056;2022-07-22T14:38:41;16.40;;;5.87;;
4112;SDS011;2070;51.042;7.056;2022-07-22T14:41:06;10.23;;;5.90;;
4112;SDS011;2070;51.042;7.056;2022-07-22T14:43:32;14.67;;;6.50;;
4112;SDS011;2070;51.042;7.056;2022-07-22T14:45:58;7.90;;;4.60;;
4112;SDS011;2070;51.042;7.056;2022-07-22T14:48:23;14.70;;;5.60;;
4112;SDS011;2070;51.042;7.056;2022-07-22T14:50:48;17.63;;;5.90;;
4112;SDS011;2070;51.042;7.056;2022-07-22T14:53:13;11.80;;;5.33;;
4112;SDS011;2070;51.042;7.056;2022-07-22T14:55:39;8.13;;;5.57;;
4112;SDS011;2070;51.042;7.056;2022-07-22T14:58:04;8.47;;;5.30;;
4112;SDS011;2070;51.042;7.056;2022-07-22T15:00:29;12.53;;;5.70;;
4112;SDS011;2070;51.042;7.056;2022-07-22T15:02:54;9.80;;;5.77;;
4112;SDS011;2070;51.042;7.056;2022-07-22T15:05:20;18.50;;;7.73;;
4112;SDS011;2070;51.042;7.056;2022-07-22T15:07:45;14.50;;;7.40;;